x

West Bermuda - 240 Nm West Of Bermuda (41048) Wave Buoy

3:50am - Thu 24th Jul 2014 All times are UTC.

  • Sig Wave height 3.0ft
  • Swell Direction
  • Peak Period 5s
  • Average Period 5s
  • Wind
    13mph, 16mph gusts
  • Sea Temp 83°f
  • Air Temp 82°f
  • Sea Pressure 1019.5mb

More Historic Weather Station data

Upgrade to MSW Pro to gain access to the past 30 days of data for over 8000 Wavebouys and Weather Stations around the globe.

Join Pro

Comparision Forecast

View Surf forecast
   
Thu 07/24 3:50am 3ft 5s 5s 13 16 mph 1019.5mb 83f 82f
2:50am 3ft 5s 5s 13 16 mph 1020mb 83f 81f
1:50am 3ft 5s 5s 11
mph
1020.6mb 83f 81f
12:50am 3ft 5s 5s 4
mph
1021mb 83f 78f
Wed 07/23 11:50pm 3.5ft 8s 5s 11 13 mph 1021.7mb 83f 76f
10:50pm 3.5ft 5s 5s 11 13 mph 1021.1mb 83f 80f
9:50pm 3ft 4s 4s 13 18 mph 1020.7mb 83f 78f
8:50pm 3ft 4s 4s 4 7 mph 1020.8mb 83f 80f
7:50pm 3ft 8s 5s 13 16 mph 1021mb 83f 83f
6:50pm 2.5ft 8s 4s 13 16 mph 1021.2mb 83f 82f
5:50pm 3ft 9s 4s 16 18 mph 1021.5mb 83f 83f
4:50pm 2.5ft 8s 5s 16 18 mph 1021.6mb 83f 83f
3:50pm 2.5ft 8s 5s 16 18 mph 1021.4mb 83f 83f
2:50pm 2.5ft 8s 5s 16 18 mph 1021.7mb 83f 83f
1:50pm 2.5ft 8s 5s 13 16 mph 1021.7mb 83f 83f
12:50pm 2.5ft 8s 5s 13 16 mph 1021.6mb 83f 82f
11:50am 2.5ft 8s 5s 16 18 mph 1021.6mb 83f 82f
10:50am 2.5ft 8s 5s 11 13 mph 1021.4mb 83f 82f
9:50am 2.5ft 9s 5s 11 13 mph 1021.5mb 83f 82f
8:50am 2.5ft 8s 5s 11 13 mph 1021.4mb 83f 82f
7:50am 2.5ft 8s 5s 11 13 mph 1021.4mb 83f 82f
6:50am 2.5ft 8s 6s 9 13 mph 1021.7mb 83f 82f
5:50am 2.5ft 8s 6s 9 11 mph 1022.1mb 83f 82f
4:50am 2.5ft 8s 6s 9 11 mph 1022.6mb 83f 82f
3:50am 2.5ft 8s 6s 9
mph
1022.9mb 83f 82f
2:50am 2.5ft 8s 6s 9 11 mph 1023mb 83f 82f
1:50am 2.5ft 8s 5s 7 9 mph 1023mb 83f 82f
12:50am 2.5ft 8s 5s 9
mph
1022.8mb 83f 82f
Tue 07/22 11:50pm 2.5ft 8s 5s 7 9 mph 1022.4mb 83f 82f
10:50pm 3ft 8s 5s 7 9 mph 1022.5mb 83f 83f
9:50pm 3ft 9s 5s 9 11 mph 1022.2mb 83f 83f
8:50pm 3ft 8s 6s 9 11 mph 1022.4mb 83f 83f
7:50pm 3ft 9s 5s 11 13 mph 1022.5mb 83f 83f
6:50pm 3ft 8s 6s 11 13 mph 1022.6mb 83f 82f
5:50pm 3ft 9s 6s 11 13 mph 1022.8mb 83f 82f
4:50pm 2.5ft 9s 6s 11 13 mph 1023mb 83f 82f
3:50pm 3ft 10s 6s 11
mph
1023.3mb 83f 82f
2:50pm 3ft 9s 6s 7 9 mph 1023.6mb 83f 82f
1:50pm 2.5ft 9s 5s 9 11 mph 1023.3mb 83f 82f
12:50pm 2.5ft 8s 5s 7 9 mph 1023mb 82f 82f
11:50am 3ft 9s 5s 9
mph
1022.9mb 82f 82f
10:50am 3ft 8s 5s 9 11 mph 1022.3mb 82f 82f
9:50am 3ft 6s 5s 9
mph
1022mb 82f 82f
8:50am 3ft 7s 5s 9 11 mph 1021.8mb 82f 82f
7:50am 3ft 6s 5s 7 9 mph 1021.6mb 82f 82f
6:50am 3ft 9s 5s 11 13 mph 1021.6mb 82f 82f
5:50am 3ft 7s 5s 11 13 mph 1021.9mb 82f 82f
4:50am 3ft 6s 5s 11 13 mph 1022.3mb 83f 82f
3:50am 2.5ft 6s 5s 11 13 mph 1022.9mb 83f 82f
2:50am 3ft 7s 5s 11
mph
1023.2mb 83f 82f
1:50am 3ft 8s 5s 9 11 mph 1023.1mb 83f 81f
12:50am 3ft 7s 5s 9 13 mph 1022.8mb 83f 82f
Mon 07/21 11:50pm 3.5ft 7s 5s 7 9 mph 1022.4mb 83f 82f
9:50pm 3ft 8s 5s 9 11 mph 1022.1mb 83f 83f
8:50pm 3.5ft 8s 5s 9 11 mph 1022mb 83f 83f
7:50pm 3.5ft 8s 5s 11 13 mph 1021.9mb 83f 83f
6:50pm 3.5ft 7s 5s 11 16 mph 1022.2mb 83f 83f
5:50pm 3.5ft 7s 5s 13
mph
1022.4mb 83f 83f
4:50pm 3.5ft 8s 5s 11 13 mph 1022.7mb 83f 83f
3:50pm 3.5ft 7s 5s 11 13 mph 1022.8mb 83f 82f
2:50pm 3.5ft 7s 5s 13 16 mph 1022.8mb 82f 82f
1:50pm 3.5ft 7s 5s 13 16 mph 1022.6mb 82f 82f
12:50pm 3.5ft 8s 5s 11 16 mph 1022.5mb 82f 82f
11:50am 3.5ft 8s 5s 11 13 mph 1022.3mb 82f 82f
10:50am 3.5ft 8s 5s 13 16 mph 1021.8mb 82f 82f
9:50am 3.5ft 8s 5s 13 16 mph 1021.5mb 82f 82f
8:50am 3.5ft 8s 5s 13 16 mph 1020.9mb 82f 82f
7:50am 4ft 7s 5s 13 16 mph 1020.5mb 82f 82f
6:50am 3.5ft 7s 5s 11 16 mph 1020.8mb 82f 82f
5:50am 3.5ft 8s 5s 13 16 mph 1021.3mb 82f 82f
4:50am 3.5ft 8s 5s 11 13 mph 1021.6mb 82f 82f
3:50am 3.5ft 7s 5s 11 13 mph 1021.9mb 82f 82f
2:50am 4ft 8s 5s 11 13 mph 1021.7mb 82f 82f
1:50am 3.5ft 8s 5s 11
mph
1021.9mb 82f 81f
12:50am 3.5ft 9s 5s 13 16 mph 1021.5mb 82f 82f
Sun 07/20 11:50pm 4ft 5s 5s 13 16 mph 1021.2mb 82f 82f
10:50pm 4ft 6s 5s 13 18 mph 1021mb 82f 82f
9:50pm 4ft 7s 5s 13 16 mph 1020.9mb 83f 82f
8:50pm 4.5ft 7s 5s 11 13 mph 1020.9mb 82f 82f
7:50pm 4.5ft 5s 5s 13 16 mph 1021.4mb 82f 80f
6:50pm 4.5ft 5s 5s 11 16 mph 1021.7mb 82f 82f
5:50pm 4.5ft 8s 5s 16 18 mph 1022mb 82f 81f
4:50pm 5ft 8s 5s 16 18 mph 1022.2mb 82f 83f
3:50pm 4.5ft 6s 5s 16 18 mph 1022.1mb 82f 82f
2:50pm 4.5ft 7s 5s 16 18 mph 1022.1mb 82f 82f
1:50pm 4.5ft 8s 5s 16 18 mph 1021.9mb 82f 82f
12:50pm 4.5ft 8s 5s 16 20 mph 1021.5mb 82f 82f
11:50am 4.5ft 6s 5s 16 20 mph 1021.3mb 82f 82f
10:50am 4.5ft 8s 5s 18 20 mph 1021mb 82f 82f
9:50am 4.5ft 8s 5s 18 20 mph 1020.5mb 82f 82f
8:50am 5ft 7s 5s 18 20 mph 1020.4mb 82f 82f
7:50am 4.5ft 8s 5s 18 20 mph 1020.3mb 82f 81f
6:50am 5ft 7s 5s 18 20 mph 1020.9mb 82f 82f
5:50am 5ft 8s 5s 18 20 mph 1021.6mb 82f 82f
4:50am 4.5ft 8s 5s 18 20 mph 1022mb 82f 82f